createdAt,value
2018-07-23T00:00:46.523Z,99.99
2018-07-23T00:02:18.094Z,99.99
2018-07-23T00:03:49.665Z,99.99
2018-07-23T00:05:21.235Z,99.99
2018-07-23T00:06:52.806Z,99.99
2018-07-23T00:08:24.477Z,99.99
2018-07-23T00:09:55.947Z,99.99
2018-07-23T00:11:27.518Z,99.99
2018-07-23T00:12:59.090Z,99.99
2018-07-23T00:14:30.910Z,99.99
2018-07-23T00:16:02.231Z,99.99
2018-07-23T00:17:33.802Z,99.99
2018-07-23T00:19:05.372Z,99.99
2018-07-23T00:20:36.943Z,99.99
2018-07-23T00:22:08.513Z,99.99
2018-07-23T00:23:40.084Z,99.99
2018-07-23T00:25:11.655Z,99.99
2018-07-23T00:26:43.330Z,99.99
2018-07-23T00:28:14.799Z,99.99
2018-07-23T00:29:46.367Z,99.99
2018-07-23T00:31:17.937Z,99.99
2018-07-23T00:32:49.507Z,99.99
2018-07-23T00:34:21.079Z,99.99
2018-07-23T00:35:52.649Z,99.99
2018-07-23T00:37:24.222Z,99.99
2018-07-23T00:38:55.790Z,99.99
2018-07-23T00:40:27.405Z,99.99
2018-07-23T00:41:58.932Z,99.99
2018-07-23T00:43:30.502Z,99.99
2018-07-23T00:45:02.424Z,99.99
2018-07-23T00:46:33.643Z,99.99
2018-07-23T00:48:05.214Z,99.99
2018-07-23T00:49:36.786Z,99.99
2018-07-23T00:51:08.354Z,99.99
2018-07-23T00:52:39.925Z,99.99
2018-07-23T00:54:11.495Z,99.99
2018-07-23T00:55:43.067Z,99.99
2018-07-23T00:57:14.635Z,99.99
2018-07-23T00:58:46.207Z,99.99
2018-07-23T01:00:17.782Z,99.99
2018-07-23T01:01:49.348Z,99.99
2018-07-23T01:03:21.020Z,99.99
2018-07-23T01:04:52.490Z,99.99
2018-07-23T01:06:24.061Z,99.99
2018-07-23T01:07:55.631Z,99.99
2018-07-23T01:09:27.305Z,99.99
2018-07-23T01:10:58.772Z,99.99
2018-07-23T01:12:30.343Z,99.99
2018-07-23T01:14:01.914Z,99.99
2018-07-23T01:15:33.485Z,99.99
2018-07-23T01:17:05.055Z,99.99
2018-07-23T01:18:36.630Z,99.99
2018-07-23T01:20:08.197Z,99.99
2018-07-23T01:21:39.868Z,99.99
2018-07-23T01:23:11.338Z,99.99
2018-07-23T01:24:42.908Z,99.99
2018-07-23T01:26:14.478Z,99.99
2018-07-23T01:27:46.149Z,99.99
2018-07-23T01:29:17.620Z,99.99
2018-07-23T01:30:49.190Z,99.99
2018-07-23T01:32:20.760Z,99.99
2018-07-23T01:33:52.433Z,99.99
2018-07-23T01:35:23.914Z,99.99
2018-07-23T01:36:55.472Z,99.99
2018-07-23T01:38:27.041Z,99.99
2018-07-23T01:39:58.864Z,99.99
2018-07-23T01:41:30.185Z,99.99
2018-07-23T01:43:01.754Z,99.99
2018-07-23T01:44:33.326Z,99.99
2018-07-23T01:46:05.146Z,99.99
2018-07-23T01:47:36.466Z,99.99
2018-07-23T01:49:08.041Z,99.99
2018-07-23T01:50:39.606Z,99.99
2018-07-23T01:52:11.177Z,99.99
2018-07-23T01:53:42.752Z,99.99
2018-07-23T01:55:14.318Z,99.99
2018-07-23T01:56:46.340Z,99.99
2018-07-23T01:58:17.661Z,99.99
2018-07-23T01:59:49.034Z,99.99
2018-07-23T02:01:20.601Z,99.99
2018-07-23T02:02:52.171Z,99.99
2018-07-23T02:04:24.047Z,99.99
2018-07-23T02:05:55.313Z,99.99
2018-07-23T02:07:26.884Z,99.99
2018-07-23T02:08:58.455Z,99.99
2018-07-23T02:10:30.076Z,99.99
2018-07-23T02:12:01.599Z,99.99
2018-07-23T02:13:33.167Z,99.99
2018-07-23T02:15:04.738Z,99.99
2018-07-23T02:16:36.660Z,99.99
2018-07-23T02:18:07.915Z,99.99
2018-07-23T02:19:39.451Z,99.99
2018-07-23T02:21:11.022Z,99.99
2018-07-23T02:22:42.591Z,99.99
2018-07-23T02:24:14.162Z,99.99
2018-07-23T02:25:46.239Z,99.99
2018-07-23T02:27:17.303Z,99.99
2018-07-23T02:28:48.875Z,99.99
2018-07-23T02:30:20.447Z,99.99
2018-07-23T02:31:52.015Z,99.99
2018-07-23T02:33:23.587Z,99.99
2018-07-23T02:34:55.257Z,99.99
2018-07-23T02:36:26.727Z,99.99
2018-07-23T02:37:58.707Z,99.99
2018-07-23T02:39:30.797Z,99.99
2018-07-23T02:41:01.439Z,99.99
2018-07-23T02:42:33.018Z,99.99
2018-07-23T02:44:04.578Z,99.99
2018-07-23T02:45:36.150Z,99.99
2018-07-23T02:47:07.970Z,99.99
2018-07-23T02:48:39.291Z,99.99
2018-07-23T02:50:10.859Z,99.99
2018-07-23T02:51:42.430Z,99.99
2018-07-23T02:53:14.100Z,99.99
2018-07-23T02:54:45.570Z,99.99
2018-07-23T02:56:17.143Z,99.99
2018-07-23T02:57:48.711Z,99.99
2018-07-23T02:59:20.282Z,99.99
2018-07-23T03:00:51.850Z,99.99
2018-07-23T03:02:23.421Z,99.99
2018-07-23T03:03:54.994Z,99.99
2018-07-23T03:05:26.562Z,99.99
2018-07-23T03:06:58.132Z,99.99
2018-07-23T03:08:29.701Z,99.99
2018-07-23T03:10:01.275Z,99.99
2018-07-23T03:11:32.943Z,99.99
2018-07-23T03:13:04.411Z,99.99
2018-07-23T03:14:35.983Z,99.99
2018-07-23T03:16:07.551Z,99.99
2018-07-23T03:17:39.372Z,99.99
2018-07-23T03:19:10.692Z,99.99
2018-07-23T03:20:42.261Z,99.99
2018-07-23T03:22:13.832Z,99.99
2018-07-23T03:23:45.402Z,99.99
2018-07-23T03:25:16.975Z,99.99
2018-07-23T03:26:48.542Z,99.99
2018-07-23T03:28:20.112Z,99.99
2018-07-23T03:29:51.882Z,99.99
2018-07-23T03:31:23.253Z,99.99
2018-07-23T03:32:54.821Z,99.99
2018-07-23T03:34:26.392Z,99.99
2018-07-23T03:35:58.063Z,99.99
2018-07-23T03:37:29.532Z,99.99
2018-07-23T03:39:01.101Z,99.99
2018-07-23T03:40:32.673Z,99.99
2018-07-23T03:42:04.247Z,99.99
2018-07-23T03:43:35.814Z,99.99
2018-07-23T03:45:07.383Z,99.99
2018-07-23T03:46:38.953Z,99.99
2018-07-23T03:48:10.873Z,99.99
2018-07-23T03:49:42.092Z,99.99
2018-07-23T03:51:13.661Z,99.99
2018-07-23T03:52:45.234Z,99.99
2018-07-23T03:54:16.901Z,99.99
2018-07-23T03:55:48.370Z,99.99
2018-07-23T03:57:19.941Z,99.99
2018-07-23T03:58:51.510Z,99.99
2018-07-23T04:00:23.180Z,99.99
2018-07-23T04:01:54.649Z,99.99
2018-07-23T04:03:26.270Z,99.99
2018-07-23T04:04:57.792Z,99.99
2018-07-23T04:06:29.459Z,99.99
2018-07-23T04:08:00.929Z,99.99
2018-07-23T04:09:32.497Z,99.99
2018-07-23T04:11:04.068Z,99.99
2018-07-23T04:12:35.741Z,99.99
2018-07-23T04:14:07.212Z,99.99
2018-07-23T04:15:38.828Z,99.99
2018-07-23T04:17:10.349Z,99.99
2018-07-23T04:18:41.938Z,99.99
2018-07-23T04:20:13.484Z,99.99
2018-07-23T04:21:45.054Z,99.99
2018-07-23T04:23:16.624Z,99.99
2018-07-23T04:24:48.293Z,99.99
2018-07-23T04:26:19.762Z,99.99
2018-07-23T04:27:51.332Z,99.99
2018-07-23T04:29:22.902Z,99.99
2018-07-23T04:30:54.516Z,99.99
2018-07-23T04:32:26.040Z,99.99
2018-07-23T04:33:57.614Z,99.99
2018-07-23T04:35:29.180Z,99.99
2018-07-23T04:37:00.899Z,99.99
2018-07-23T04:38:32.318Z,99.99
2018-07-23T04:40:03.888Z,99.99
2018-07-23T04:41:35.457Z,99.99
2018-07-23T04:43:07.132Z,99.99
2018-07-23T04:44:38.643Z,99.99
2018-07-23T04:46:10.165Z,99.99
2018-07-23T04:47:41.734Z,99.99
2018-07-23T04:49:13.354Z,99.99
2018-07-23T04:50:44.890Z,99.99
2018-07-23T04:52:16.442Z,99.99
2018-07-23T04:53:48.011Z,99.99
2018-07-23T04:55:19.579Z,99.99
2018-07-23T04:58:22.718Z,99.99
2018-07-23T04:59:54.288Z,99.99
2018-07-23T05:01:26.111Z,99.99
2018-07-23T05:02:57.425Z,99.99
2018-07-23T05:04:29.006Z,99.99
2018-07-23T05:06:00.564Z,99.99
2018-07-23T05:07:32.234Z,99.99
2018-07-23T05:09:03.702Z,99.99
2018-07-23T05:10:35.271Z,99.99
2018-07-23T05:12:06.839Z,99.99
2018-07-23T05:13:38.409Z,99.99
2018-07-23T05:15:09.978Z,99.99
2018-07-23T05:16:41.548Z,99.99
2018-07-23T05:18:13.116Z,99.99
2018-07-23T05:19:45.037Z,99.99
2018-07-23T05:21:16.256Z,99.99
2018-07-23T05:22:47.824Z,99.99
2018-07-23T05:24:19.395Z,99.99
2018-07-23T05:25:50.968Z,99.99
2018-07-23T05:27:22.532Z,99.99
2018-07-23T05:28:54.103Z,99.99
2018-07-23T05:30:25.671Z,99.99
2018-07-23T05:31:57.240Z,99.99
2018-07-23T05:33:28.810Z,99.99
2018-07-23T05:35:00.378Z,99.99
2018-07-23T05:36:31.950Z,99.99
2018-07-23T05:38:03.617Z,99.99
2018-07-23T05:39:35.087Z,99.99
2018-07-23T05:41:06.657Z,99.99
2018-07-23T05:42:38.227Z,99.99
2018-07-23T05:44:09.796Z,99.99
2018-07-23T05:45:41.365Z,99.99
2018-07-23T05:47:12.936Z,99.99
2018-07-23T05:48:44.503Z,99.99
2018-07-23T05:50:16.324Z,99.99
2018-07-23T05:51:47.641Z,99.99
2018-07-23T05:53:19.211Z,99.99
2018-07-23T05:54:50.780Z,99.99
2018-07-23T05:56:22.450Z,99.99
2018-07-23T05:57:53.920Z,99.99
2018-07-23T05:59:25.507Z,99.99
2018-07-23T06:00:57.058Z,99.99
2018-07-23T06:02:28.627Z,99.99
2018-07-23T06:04:00.198Z,99.99
2018-07-23T06:05:31.767Z,99.99
2018-07-23T06:07:03.499Z,99.99
2018-07-23T06:08:35.056Z,99.99
2018-07-23T06:10:06.475Z,99.99
2018-07-23T06:11:38.044Z,99.99
2018-07-23T06:13:09.618Z,99.99
2018-07-23T06:14:41.785Z,99.99
2018-07-23T06:16:12.752Z,99.99
2018-07-23T06:17:44.324Z,99.99
2018-07-23T06:19:15.893Z,99.99
2018-07-23T06:20:47.613Z,99.99
2018-07-23T06:22:19.034Z,99.99
2018-07-23T06:23:50.603Z,99.99
2018-07-23T06:25:22.171Z,99.99
2018-07-23T06:26:53.741Z,99.99
2018-07-23T06:28:25.313Z,99.99
2018-07-23T06:29:56.910Z,99.99
2018-07-23T06:31:28.449Z,99.99
2018-07-23T06:33:00.219Z,99.99
2018-07-23T06:34:31.593Z,99.99
2018-07-23T06:36:03.158Z,99.99
2018-07-23T06:37:34.748Z,99.99
2018-07-23T06:39:06.399Z,99.99
2018-07-23T06:40:37.866Z,99.99
2018-07-23T06:42:09.436Z,99.99
2018-07-23T06:43:41.005Z,99.99
2018-07-23T06:45:12.576Z,99.99
2018-07-23T06:46:44.187Z,99.99
2018-07-23T06:48:15.714Z,99.99
2018-07-23T06:49:47.284Z,99.99
2018-07-23T06:51:19.205Z,99.99
2018-07-23T06:52:50.425Z,99.99
2018-07-23T06:54:21.993Z,99.99
2018-07-23T06:55:53.562Z,99.99
2018-07-23T06:57:25.201Z,99.99
2018-07-23T06:58:56.702Z,99.99
2018-07-23T07:00:28.320Z,99.99
2018-07-23T07:01:59.841Z,99.99
2018-07-23T07:03:31.515Z,99.99
2018-07-23T07:05:02.981Z,99.99
2018-07-23T07:06:34.550Z,99.99
2018-07-23T07:08:06.120Z,99.99
2018-07-23T07:09:37.791Z,99.99
2018-07-23T07:11:09.262Z,99.99
2018-07-23T07:12:40.830Z,99.99
2018-07-23T07:14:12.399Z,99.99
2018-07-23T07:15:44.117Z,99.99
2018-07-23T07:17:15.537Z,99.99
2018-07-23T07:18:47.107Z,99.99
2018-07-23T07:20:18.675Z,99.99
2018-07-23T07:21:50.396Z,99.99
2018-07-23T07:23:21.815Z,99.99
2018-07-23T07:24:53.385Z,99.99
2018-07-23T07:26:24.954Z,99.99
2018-07-23T07:27:56.625Z,99.99
2018-07-23T07:29:28.096Z,99.99
2018-07-23T07:30:59.667Z,99.99
2018-07-23T07:32:31.237Z,99.99
2018-07-23T07:34:02.904Z,99.99
2018-07-23T07:35:34.372Z,99.99
2018-07-23T07:37:05.944Z,99.99
2018-07-23T07:38:37.512Z,99.99
2018-07-23T07:40:09.182Z,99.99
2018-07-23T07:41:40.651Z,99.99
2018-07-23T07:43:12.220Z,99.99
2018-07-23T07:44:43.794Z,99.99
2018-07-23T07:46:15.610Z,99.99
2018-07-23T07:47:46.930Z,99.99
2018-07-23T07:49:18.498Z,99.99
2018-07-23T07:50:50.067Z,99.99
2018-07-23T07:52:21.840Z,99.99
2018-07-23T07:53:53.206Z,99.99
2018-07-23T07:55:24.776Z,99.99
2018-07-23T07:56:56.397Z,99.99
2018-07-23T07:58:27.917Z,99.99
2018-07-23T07:59:59.487Z,99.99
2018-07-23T08:01:31.056Z,99.99
2018-07-23T08:03:02.626Z,99.99
2018-07-23T08:04:34.396Z,99.99
2018-07-23T08:06:05.765Z,99.99
2018-07-23T08:07:37.333Z,99.99
2018-07-23T08:09:08.947Z,99.99
2018-07-23T08:10:40.474Z,99.99
2018-07-23T08:12:12.045Z,99.99
2018-07-23T08:13:43.613Z,99.99
2018-07-23T08:15:15.182Z,99.99
2018-07-23T08:16:46.909Z,99.99
2018-07-23T08:18:18.321Z,99.99
2018-07-23T08:19:49.891Z,99.99
2018-07-23T08:21:21.462Z,99.99
2018-07-23T08:22:53.281Z,99.99
2018-07-23T08:24:24.603Z,99.99
2018-07-23T08:25:56.172Z,99.99
2018-07-23T08:27:27.741Z,99.99
2018-07-23T08:28:59.310Z,99.99
2018-07-23T08:30:30.880Z,99.99
2018-07-23T08:32:02.558Z,99.99
2018-07-23T08:33:34.019Z,99.99
2018-07-23T08:35:05.690Z,99.99
2018-07-23T08:36:37.158Z,99.99
2018-07-23T08:38:08.728Z,99.99
2018-07-23T08:39:40.312Z,99.99
2018-07-23T08:41:11.969Z,99.99
2018-07-23T08:42:43.437Z,99.99
2018-07-23T08:44:15.007Z,99.99
2018-07-23T08:45:46.578Z,99.99
2018-07-23T08:47:18.253Z,99.99
2018-07-23T08:48:49.719Z,99.99
2018-07-23T08:50:21.288Z,99.99
2018-07-23T08:51:52.858Z,99.99
2018-07-23T08:53:24.677Z,99.99
2018-07-23T08:54:55.995Z,99.99
2018-07-23T08:56:27.566Z,99.99
2018-07-23T08:57:59.135Z,99.99
2018-07-23T08:59:30.828Z,99.99
2018-07-23T09:01:02.276Z,99.99
2018-07-23T09:02:33.847Z,99.99
2018-07-23T09:04:05.417Z,99.99
2018-07-23T09:05:37.088Z,99.99
2018-07-23T09:07:08.557Z,99.99
2018-07-23T09:08:40.191Z,99.99
2018-07-23T09:10:11.701Z,99.99
2018-07-23T09:11:43.267Z,99.99
2018-07-23T09:13:14.845Z,99.99
2018-07-23T09:14:46.408Z,99.99
2018-07-23T09:16:17.978Z,99.99
2018-07-23T09:17:49.648Z,99.99
2018-07-23T09:19:21.117Z,99.99
2018-07-23T09:20:52.687Z,99.99
2018-07-23T09:22:24.257Z,99.99
2018-07-23T09:23:56.201Z,99.99
2018-07-23T09:25:27.397Z,99.99
2018-07-23T09:26:58.967Z,99.99
2018-07-23T09:28:30.537Z,99.99
2018-07-23T09:30:02.107Z,99.99
2018-07-23T09:31:33.682Z,99.99
2018-07-23T09:33:05.258Z,99.99
2018-07-23T09:34:36.820Z,99.99
2018-07-23T09:36:08.589Z,99.99
2018-07-23T09:37:39.957Z,99.99
2018-07-23T09:39:11.525Z,99.99
2018-07-23T09:40:43.095Z,99.99
2018-07-23T09:42:14.666Z,99.99
2018-07-23T09:43:46.234Z,99.99
2018-07-23T09:45:17.804Z,99.99
2018-07-23T09:46:49.374Z,99.99
2018-07-23T09:48:21.348Z,99.99
2018-07-23T09:49:52.515Z,99.99
2018-07-23T09:51:24.085Z,99.99
2018-07-23T09:52:55.654Z,99.99
2018-07-23T09:54:27.324Z,99.99
2018-07-23T09:55:58.794Z,99.99
2018-07-23T09:57:30.363Z,99.99
2018-07-23T09:59:01.937Z,99.99
2018-07-23T10:00:33.501Z,99.99
2018-07-23T10:02:05.072Z,99.99
2018-07-23T10:03:36.669Z,99.99
2018-07-23T10:05:08.218Z,99.99
2018-07-23T10:06:39.783Z,99.99
2018-07-23T10:08:11.351Z,99.99
2018-07-23T10:09:42.922Z,99.99
2018-07-23T10:11:14.491Z,99.99
2018-07-23T10:12:46.162Z,99.99
2018-07-23T10:14:17.652Z,99.99
2018-07-23T10:15:49.505Z,99.99
2018-07-23T10:17:20.772Z,99.99
2018-07-23T10:18:52.373Z,99.99
2018-07-23T10:20:23.920Z,99.99
2018-07-23T10:21:55.841Z,99.99
2018-07-23T10:23:27.410Z,99.99
2018-07-23T10:24:58.621Z,99.99
2018-07-23T10:26:30.676Z,99.99
2018-07-23T10:28:02.277Z,99.99
2018-07-23T10:29:33.577Z,99.99
2018-07-23T10:31:05.290Z,99.99
2018-07-23T10:32:36.590Z,99.99
2018-07-23T10:34:08.278Z,99.99
2018-07-23T10:35:39.611Z,99.99
2018-07-23T10:37:11.183Z,99.99
2018-07-23T10:38:42.991Z,99.99
2018-07-23T10:40:15.055Z,99.99
2018-07-23T10:41:46.198Z,99.99
2018-07-23T10:43:17.988Z,99.99
2018-07-23T10:44:49.214Z,99.99
2018-07-23T10:46:20.684Z,99.99
2018-07-23T10:47:52.174Z,99.99
2018-07-23T10:49:23.919Z,99.99
2018-07-23T10:50:55.636Z,99.99
2018-07-23T10:52:26.886Z,99.99
2018-07-23T10:53:58.457Z,99.99
2018-07-23T10:55:30.028Z,99.99
2018-07-23T10:57:01.602Z,99.99
2018-07-23T10:58:33.372Z,99.99
2018-07-23T11:00:04.741Z,99.99
2018-07-23T11:03:08.412Z,99.99
2018-07-23T11:04:39.758Z,99.99
2018-07-23T11:06:11.556Z,99.99
2018-07-23T11:07:42.601Z,99.99
2018-07-23T11:09:14.803Z,99.99
2018-07-23T11:10:45.739Z,99.99
2018-07-23T11:13:49.666Z,99.99
2018-07-23T11:15:20.497Z,99.99
2018-07-23T11:16:52.064Z,99.99
2018-07-23T11:26:02.080Z,99.99
2018-07-23T11:27:33.242Z,99.99
2018-07-23T11:29:04.813Z,99.99
2018-07-23T11:30:36.185Z,99.98
2018-07-23T11:32:07.822Z,99.30
2018-07-23T11:33:39.337Z,98.24
2018-07-23T11:35:11.114Z,98.58
2018-07-23T11:36:42.496Z,97.67
2018-07-23T11:38:14.261Z,98.72
2018-07-23T11:39:45.631Z,98.72
2018-07-23T11:41:17.511Z,97.96
2018-07-23T11:42:48.967Z,96.47
2018-07-23T11:44:20.965Z,95.65
2018-07-23T11:45:52.642Z,96.66
2018-07-23T11:47:23.726Z,94.97
2018-07-23T11:48:55.290Z,95.50
2018-07-23T11:50:26.661Z,96.08
2018-07-23T11:51:58.440Z,96.37
2018-07-23T11:53:29.887Z,95.60
2018-07-23T11:55:01.597Z,96.08
2018-07-23T11:56:33.556Z,95.60
2018-07-23T11:59:36.121Z,91.99
2018-07-23T12:01:07.802Z,91.02
2018-07-23T12:02:39.582Z,92.61
2018-07-23T12:04:10.867Z,91.46
2018-07-23T12:05:42.451Z,92.90
2018-07-23T12:07:14.013Z,93.29
2018-07-23T12:10:17.466Z,91.69
2018-07-23T12:11:49.057Z,89.78
2018-07-23T12:13:20.319Z,92.85
2018-07-23T12:14:52.098Z,91.41
2018-07-23T12:16:23.778Z,89.86
2018-07-23T12:17:55.682Z,89.58
2018-07-23T12:19:26.824Z,89.81
2018-07-23T12:20:58.373Z,88.85
2018-07-23T12:22:29.790Z,91.84
2018-07-23T12:24:01.370Z,91.55
2018-07-23T12:25:32.947Z,91.84
2018-07-23T12:27:04.531Z,90.83
2018-07-23T12:28:36.708Z,88.75
2018-07-23T12:30:07.681Z,88.12
2018-07-23T12:31:39.543Z,85.06
2018-07-23T12:33:10.848Z,83.42
2018-07-23T12:34:42.420Z,84.16
2018-07-23T12:36:14.052Z,89.92
2018-07-23T12:39:17.297Z,88.37
2018-07-23T12:40:49.040Z,89.43
2018-07-23T12:43:51.898Z,89.00
2018-07-23T12:45:23.546Z,89.14
2018-07-23T12:46:55.059Z,89.34
2018-07-23T12:48:26.735Z,89.77
2018-07-23T12:49:58.573Z,88.17
2018-07-23T12:53:01.376Z,82.65
2018-07-23T12:54:33.124Z,84.25
2018-07-23T12:57:36.121Z,82.65
2018-07-23T12:59:08.043Z,80.47
2018-07-23T13:00:39.283Z,82.61
2018-07-23T13:02:10.853Z,85.33
2018-07-23T13:03:42.443Z,86.63
2018-07-23T13:05:14.101Z,87.45
2018-07-23T13:08:18.814Z,82.67
2018-07-23T13:09:48.966Z,80.33
2018-07-23T13:11:20.636Z,81.60
2018-07-23T13:12:52.216Z,83.44
2018-07-23T13:14:24.136Z,81.30
2018-07-23T13:15:55.079Z,78.44
2018-07-23T13:17:27.763Z,79.12
2018-07-23T13:20:29.852Z,83.78
2018-07-23T13:22:01.401Z,86.63
2018-07-23T13:23:33.509Z,86.63
2018-07-23T13:25:04.562Z,86.15
2018-07-23T13:26:36.447Z,84.31
2018-07-23T13:28:07.723Z,83.42
2018-07-23T13:29:39.833Z,84.80
2018-07-23T13:31:10.885Z,83.05
2018-07-23T13:32:42.465Z,80.12
2018-07-23T13:34:14.046Z,78.89
2018-07-23T13:37:17.510Z,79.99
2018-07-23T13:38:48.789Z,77.26
2018-07-23T13:40:20.370Z,76.86
2018-07-23T13:41:52.257Z,78.50
2018-07-23T13:44:55.167Z,76.95
2018-07-23T13:46:26.716Z,77.28
2018-07-23T13:47:58.278Z,75.91
2018-07-23T13:49:29.860Z,75.06
2018-07-23T13:51:01.444Z,76.32
2018-07-23T13:52:33.031Z,76.09
2018-07-23T13:54:04.604Z,76.86
2018-07-23T13:55:36.427Z,76.47
2018-07-23T13:58:40.271Z,75.43
2018-07-23T14:00:10.930Z,75.39
2018-07-23T14:04:45.678Z,76.70
2018-07-23T14:06:17.258Z,75.45
2018-07-23T14:07:48.840Z,77.44
2018-07-23T14:09:20.625Z,77.03
2018-07-23T14:10:52.217Z,74.40
2018-07-23T14:12:23.638Z,74.71
2018-07-23T14:13:55.177Z,77.59
2018-07-23T14:15:26.779Z,76.37
2018-07-23T14:16:58.443Z,76.86
2018-07-23T14:20:02.073Z,74.85
2018-07-23T14:21:33.093Z,73.68
2018-07-23T14:23:04.658Z,75.54
2018-07-23T14:24:36.546Z,73.88
2018-07-23T14:27:39.815Z,73.01
2018-07-23T14:29:11.349Z,73.46
2018-07-23T14:30:43.851Z,74.19
2018-07-23T14:32:14.146Z,76.28
2018-07-23T14:35:17.419Z,77.63
2018-07-23T14:36:48.892Z,76.09
2018-07-23T14:38:20.586Z,75.70
2018-07-23T14:39:52.092Z,73.52
2018-07-23T14:42:55.219Z,73.80
2018-07-23T14:44:26.808Z,74.68
2018-07-23T14:45:58.380Z,76.09
2018-07-23T14:49:01.645Z,75.64
2018-07-23T14:50:33.123Z,73.07
2018-07-23T14:52:04.726Z,72.66
2018-07-23T14:53:36.285Z,70.21
2018-07-23T14:55:07.968Z,67.34
2018-07-23T14:56:39.756Z,64.40
2018-07-23T14:58:11.036Z,65.69
2018-07-23T14:59:42.917Z,67.56
2018-07-23T15:01:14.195Z,69.24
2018-07-23T15:02:45.778Z,67.82
2018-07-23T15:04:17.562Z,70.84
2018-07-23T15:05:48.943Z,70.72
2018-07-23T15:07:20.524Z,71.30
2018-07-23T15:08:52.108Z,71.91
2018-07-23T15:10:23.894Z,70.40
2018-07-23T15:11:55.800Z,69.66
2018-07-23T15:13:26.954Z,69.66
2018-07-23T15:14:58.437Z,67.98
2018-07-23T15:18:01.904Z,65.50
2018-07-23T15:19:33.901Z,64.62
2018-07-23T15:21:04.766Z,65.40
2018-07-23T15:22:36.348Z,67.56
2018-07-23T15:24:08.503Z,70.17
2018-07-23T15:25:39.514Z,71.04
2018-07-23T15:27:11.624Z,68.91
2018-07-23T15:30:14.269Z,66.17
2018-07-23T15:31:46.296Z,64.85
2018-07-23T15:33:17.457Z,64.85
2018-07-23T15:34:49.012Z,64.34
2018-07-23T15:36:20.795Z,65.47
2018-07-23T15:37:52.477Z,65.95
2018-07-23T15:39:23.759Z,64.82
2018-07-23T15:40:55.342Z,63.26
2018-07-23T15:42:27.126Z,61.94
2018-07-23T15:43:58.846Z,62.04
2018-07-23T15:45:30.503Z,60.45
2018-07-23T15:47:01.877Z,61.78
2018-07-23T15:48:33.258Z,60.58
2018-07-23T15:53:08.109Z,56.04
2018-07-23T15:54:39.593Z,53.36
2018-07-23T15:56:11.380Z,52.16
2018-07-23T15:59:14.345Z,56.62
2018-07-23T16:03:49.099Z,56.75
2018-07-23T16:05:20.698Z,57.76
2018-07-23T16:08:23.854Z,56.11
2018-07-23T16:09:55.641Z,57.76
2018-07-23T16:11:28.056Z,56.98
2018-07-23T16:12:58.637Z,55.31
2018-07-23T16:14:30.192Z,56.37
2018-07-23T16:16:01.777Z,56.86
2018-07-23T16:17:33.363Z,55.65
2018-07-23T16:19:04.947Z,53.69
2018-07-23T16:20:36.529Z,50.43
2018-07-23T16:22:08.113Z,50.58
2018-07-23T16:23:39.696Z,51.19
2018-07-23T16:25:11.287Z,50.70
2018-07-23T16:26:42.865Z,52.01
2018-07-23T16:28:14.977Z,51.28
2018-07-23T16:29:46.138Z,50.36
2018-07-23T16:31:17.618Z,51.40
2018-07-23T16:32:49.203Z,51.14
2018-07-23T16:35:52.371Z,50.63
2018-07-23T16:37:23.955Z,50.48
2018-07-23T16:38:55.540Z,49.77
2018-07-23T16:43:30.394Z,50.34
2018-07-23T16:46:34.012Z,50.56
2018-07-23T16:53:03.637Z,48.66
2018-07-23T16:54:35.221Z,49.39
2018-07-23T16:56:07.108Z,51.23
2018-07-23T16:57:38.366Z,54.99
2018-07-23T17:00:41.485Z,50.02
2018-07-23T17:02:13.079Z,49.85
2018-07-23T17:03:44.661Z,49.71
2018-07-23T17:05:16.548Z,47.61
2018-07-23T17:11:22.977Z,45.74
2018-07-23T17:12:54.160Z,47.54
2018-07-23T17:14:25.942Z,48.88
2018-07-23T17:17:41.291Z,47.69
2018-07-23T17:19:12.570Z,46.30
2018-07-23T17:20:44.184Z,45.81
2018-07-23T17:22:15.491Z,47.25
2018-07-23T17:23:47.054Z,47.81
2018-07-23T17:25:18.643Z,48.30
2018-07-23T17:26:50.945Z,48.30
2018-07-23T17:28:22.049Z,48.80
2018-07-23T17:29:53.381Z,47.49
2018-07-23T17:31:25.168Z,46.44
2018-07-23T17:32:57.046Z,45.67
2018-07-23T17:34:28.332Z,44.52
2018-07-23T17:35:59.729Z,43.41
2018-07-23T17:39:02.906Z,45.67
2018-07-23T17:40:34.512Z,44.56
2018-07-23T17:42:06.049Z,42.87
2018-07-23T17:43:37.633Z,41.13
2018-07-23T17:45:09.748Z,40.16
2018-07-23T17:49:44.581Z,40.43
2018-07-23T17:51:15.551Z,40.16
2018-07-23T17:52:47.739Z,39.88
2018-07-23T17:54:19.351Z,40.92
2018-07-23T17:55:51.899Z,42.26
2018-07-23T17:57:23.760Z,41.75
2018-07-23T17:58:53.782Z,41.19
2018-07-23T18:00:26.487Z,40.35
2018-07-23T18:01:58.140Z,39.20
2018-07-23T18:03:31.211Z,38.82
2018-07-23T18:05:01.680Z,39.76
2018-07-23T18:06:32.498Z,41.60
2018-07-23T18:08:03.206Z,45.23
2018-07-23T18:09:34.579Z,46.61
2018-07-23T18:11:06.517Z,45.23
2018-07-23T18:12:38.236Z,45.32
2018-07-23T18:14:10.780Z,44.79
2018-07-23T18:15:40.897Z,43.57
2018-07-23T18:18:44.132Z,46.25
2018-07-23T18:20:15.657Z,44.92
2018-07-23T18:21:47.580Z,44.92
2018-07-23T18:23:19.020Z,44.94
2018-07-23T18:24:50.749Z,44.38
2018-07-23T18:27:53.561Z,42.69
2018-07-23T18:29:25.143Z,41.93
2018-07-23T18:30:56.828Z,40.88
2018-07-23T18:32:28.310Z,39.84
2018-07-23T18:34:00.096Z,38.69
2018-07-23T18:37:03.175Z,37.41
2018-07-23T18:38:34.826Z,37.41
2018-07-23T18:40:06.229Z,36.47
2018-07-23T18:41:37.806Z,37.43
2018-07-23T18:43:09.488Z,36.24
2018-07-23T18:44:40.971Z,40.13
2018-07-23T18:46:13.770Z,40.73
2018-07-23T18:47:44.146Z,41.13
2018-07-23T18:49:15.722Z,40.91
2018-07-23T18:50:47.566Z,41.96
2018-07-23T18:52:18.885Z,42.43
2018-07-23T18:55:22.051Z,43.58
2018-07-23T18:58:25.216Z,43.38
2018-07-23T18:59:56.813Z,43.50
2018-07-23T19:01:28.482Z,41.52
2018-07-23T19:04:31.547Z,42.25
2018-07-23T19:07:34.912Z,41.99
2018-07-23T19:09:06.410Z,41.42
2018-07-23T19:10:38.046Z,40.93
2018-07-23T19:12:09.456Z,42.04
2018-07-23T19:13:41.038Z,43.11
2018-07-23T19:15:12.629Z,41.50
2018-07-23T19:18:15.783Z,42.08
2018-07-23T19:19:47.668Z,44.13
2018-07-23T19:21:18.953Z,42.96
2018-07-23T19:24:22.149Z,44.76
2018-07-23T19:25:54.217Z,46.03
2018-07-23T19:27:25.275Z,43.65
2018-07-23T19:28:56.854Z,47.34
2018-07-23T19:30:28.437Z,46.47
2018-07-23T19:32:00.221Z,45.81
2018-07-23T19:33:31.599Z,45.15
2018-07-23T19:35:03.180Z,44.86
2018-07-23T19:36:35.071Z,45.84
2018-07-23T19:38:06.442Z,45.15
2018-07-23T19:39:37.922Z,44.86
2018-07-23T19:41:09.512Z,46.32
2018-07-23T19:42:41.092Z,46.25
2018-07-23T19:44:13.059Z,48.39
2018-07-23T19:45:44.246Z,49.76
2018-07-23T19:47:15.825Z,49.54
2018-07-23T19:48:47.410Z,50.21
2018-07-23T19:50:18.987Z,48.05
2018-07-23T19:51:50.872Z,49.80
2018-07-23T19:53:22.495Z,51.14
2018-07-23T19:54:54.258Z,53.49
2018-07-23T19:56:25.410Z,53.61
2018-07-23T19:57:56.894Z,54.68
2018-07-23T19:59:28.470Z,53.69
2018-07-23T20:01:00.084Z,54.36
2018-07-23T20:02:31.629Z,52.62
2018-07-23T20:04:03.212Z,53.39
2018-07-23T20:05:35.094Z,54.07
2018-07-23T20:07:06.368Z,54.05
2018-07-23T20:08:37.949Z,55.21
2018-07-23T20:10:09.528Z,57.15
2018-07-23T20:11:41.105Z,61.49
2018-07-23T20:13:12.684Z,61.85
2018-07-23T20:14:44.363Z,64.14
2018-07-23T20:16:16.044Z,64.53
2018-07-23T20:17:47.471Z,66.69
2018-07-23T20:19:19.334Z,64.85
2018-07-23T20:20:50.628Z,66.85
2018-07-23T20:22:22.671Z,68.14
2018-07-23T20:25:25.311Z,66.72
2018-07-23T20:26:56.890Z,65.85
2018-07-23T20:28:28.791Z,69.71
2018-07-23T20:30:00.047Z,69.71
2018-07-23T20:31:31.825Z,70.87
2018-07-23T20:33:03.451Z,71.51
2018-07-23T20:34:34.776Z,71.03
2018-07-23T20:36:06.352Z,73.69
2018-07-23T20:39:09.511Z,72.06
2018-07-23T20:40:41.129Z,76.93
2018-07-23T20:42:12.661Z,73.08
2018-07-23T20:43:44.236Z,75.49
2018-07-23T20:45:15.813Z,72.79
2018-07-23T20:46:47.388Z,71.31
2018-07-23T20:48:18.963Z,72.18
2018-07-23T20:49:50.540Z,74.88
2018-07-23T20:51:22.227Z,72.27
2018-07-23T20:52:53.691Z,74.78
2018-07-23T20:54:25.269Z,74.78
2018-07-23T20:55:56.855Z,73.91
2018-07-23T20:57:28.420Z,73.14
2018-07-23T20:58:59.993Z,71.50
2018-07-23T21:00:31.569Z,73.72
2018-07-23T21:02:03.141Z,72.75
2018-07-23T21:03:34.817Z,74.01
2018-07-23T21:05:06.292Z,75.80
2018-07-23T21:06:37.867Z,75.99
2018-07-23T21:08:09.441Z,74.84
2018-07-23T21:09:41.117Z,75.71
2018-07-23T21:11:12.590Z,76.48